Time;durP1;ratioP1;P1;durP2;ratioP2;P2;SDS_P1;SDS_P2;PMS_P1;PMS_P2;Temp;Humidity;BMP_temperature;BMP_pressure;BME280_temperature;BME280_humidity;BME280_pressure;Samples;Min_cycle;Max_cycle;Signal;HPM_P1;HPM_P2
2023/03/28 00:01:37;;;;;;;13.18;1.52;;;2.10;99.90;;;;;;4769474;30;20043;-86
2023/03/28 00:04:03;;;;;;;13.70;1.77;;;2.40;99.90;;;;;;4753067;30;20047;-85
2023/03/28 00:06:30;;;;;;;9.77;1.83;;;1.30;99.90;;;;;;4765620;30;20044;-86
2023/03/28 00:08:56;;;;;;;17.05;2.78;;;2.00;99.90;;;;;;4754132;30;20075;-86
2023/03/28 00:11:22;;;;;;;16.70;1.67;;;2.00;99.90;;;;;;4753151;30;20060;-86
2023/03/28 00:13:59;;;;;;;9.75;2.10;;;2.00;99.90;;;;;;4767538;30;20140;-85
2023/03/28 00:16:31;;;;;;;13.38;1.63;;;2.00;99.90;;;;;;4752020;30;20070;-86
2023/03/28 00:18:59;;;;;;;15.38;2.05;;;2.10;99.90;;;;;;4753586;30;20076;-86
2023/03/28 00:21:30;;;;;;;11.65;1.45;;;2.00;99.90;;;;;;4768599;30;20093;-85
2023/03/28 00:24:00;;;;;;;17.17;1.73;;;2.90;99.90;;;;;;4750768;30;20055;-86
2023/03/28 00:26:27;;;;;;;8.93;1.20;;;2.00;99.90;;;;;;4766802;30;20118;-86
2023/03/28 00:28:54;;;;;;;11.93;1.83;;;2.00;99.90;;;;;;4751315;30;20396;-86
2023/03/28 00:31:21;;;;;;;8.63;1.73;;;2.00;99.90;;;;;;4753124;30;20047;-86
2023/03/28 00:33:46;;;;;;;13.65;1.65;;;2.00;99.90;;;;;;4754245;30;20051;-86
2023/03/28 00:36:31;;;;;;;11.52;1.30;;;2.00;99.90;;;;;;4752695;30;20054;-86
2023/03/28 00:39:05;;;;;;;10.77;1.45;;;2.00;99.90;;;;;;4750867;30;20431;-86
2023/03/28 00:41:38;;;;;;;9.80;2.13;;;1.90;99.90;;;;;;4756451;30;20130;-86
2023/03/28 00:44:40;;;;;;;7.30;1.25;;;2.90;99.90;;;;;;4769793;30;20048;-86
2023/03/28 00:47:15;;;;;;;8.88;1.40;;;2.00;99.90;;;;;;4767870;30;20503;-86
2023/03/28 00:49:45;;;;;;;10.20;1.05;;;1.90;99.90;;;;;;4768557;30;20184;-86
2023/03/28 00:52:14;;;;;;;16.95;1.65;;;1.90;99.90;;;;;;4754323;30;20048;-86
2023/03/28 00:54:40;;;;;;;13.88;1.20;;;2.00;99.90;;;;;;4771508;30;20105;-86
2023/03/28 00:57:08;;;;;;;11.05;1.48;;;1.90;99.90;;;;;;4756524;30;20134;-86
2023/03/28 00:59:36;;;;;;;16.00;3.08;;;1.90;99.90;;;;;;4754896;30;20063;-86
2023/03/28 01:02:02;;;;;;;7.80;1.83;;;2.00;99.90;;;;;;4769484;30;20055;-86
2023/03/28 01:04:35;;;;;;;9.15;1.17;;;1.90;99.90;;;;;;4767286;30;20054;-86
2023/03/28 01:07:02;;;;;;;19.30;1.52;;;1.90;99.90;;;;;;4752860;30;20092;-86
2023/03/28 01:09:29;;;;;;;12.45;1.10;;;1.90;99.90;;;;;;4755198;30;20039;-86
2023/03/28 01:11:57;;;;;;;11.43;1.38;;;1.80;99.90;;;;;;4765996;30;20044;-86
2023/03/28 01:14:27;;;;;;;14.52;1.60;;;2.70;99.90;;;;;;4753293;30;20086;-85
2023/03/28 01:16:55;;;;;;;16.15;1.98;;;1.80;99.90;;;;;;4751768;30;20047;-86
2023/03/28 01:19:46;;;;;;;7.85;1.20;;;1.80;99.90;;;;;;4767090;30;20492;-86
2023/03/28 01:22:20;;;;;;;13.35;1.85;;;1.80;99.90;;;;;;4752013;30;20521;-86
2023/03/28 01:25:35;;;;;;;19.13;1.83;;;1.80;99.90;;;;;;4767791;30;20075;-86
2023/03/28 01:28:18;;;;;;;11.27;2.55;;;1.80;99.90;;;;;;4764601;30;20139;-85
2023/03/28 01:31:10;;;;;;;16.67;1.63;;;1.80;99.90;;;;;;4750470;30;20031;-86
2023/03/28 01:33:54;;;;;;;10.80;1.70;;;1.80;99.90;;;;;;4768332;30;20039;-86
2023/03/28 01:37:00;;;;;;;14.00;1.30;;;1.80;99.90;;;;;;4750189;30;20774;-86
2023/03/28 01:39:54;;;;;;;11.20;1.63;;;1.70;99.90;;;;;;4747963;30;20184;-86
2023/03/28 01:42:35;;;;;;;14.52;1.70;;;1.80;99.90;;;;;;4771029;30;20071;-86
2023/03/28 01:45:18;;;;;;;15.07;1.67;;;1.80;99.90;;;;;;4751793;30;20055;-86
2023/03/28 01:47:56;;;;;;;11.98;1.33;;;1.70;99.90;;;;;;4766160;30;20126;-86
2023/03/28 01:50:30;;;;;;;13.38;2.42;;;1.80;99.90;;;;;;4753339;30;20035;-86
2023/03/28 01:53:09;;;;;;;11.57;1.85;;;1.80;99.90;;;;;;4766934;30;20053;-85
2023/03/28 01:55:38;;;;;;;8.15;1.25;;;1.70;99.90;;;;;;4751559;30;20054;-86
2023/03/28 01:58:15;;;;;;;9.05;1.38;;;1.70;99.90;;;;;;4765428;30;20054;-85
2023/03/28 02:00:44;;;;;;;13.52;1.20;;;1.70;99.90;;;;;;4767250;30;20086;-85
2023/03/28 02:03:21;;;;;;;10.70;1.83;;;1.70;99.90;;;;;;4751926;30;20087;-86
2023/03/28 02:05:49;;;;;;;17.25;1.92;;;1.70;99.90;;;;;;4764437;30;20109;-86
2023/03/28 02:08:17;;;;;;;18.23;1.42;;;1.70;99.90;;;;;;4766076;30;20118;-86
2023/03/28 02:10:45;;;;;;;12.88;1.40;;;1.70;99.90;;;;;;4736647;30;20044;-85
2023/03/28 02:13:19;;;;;;;10.60;2.00;;;1.70;99.90;;;;;;4768795;30;20118;-86
2023/03/28 02:15:51;;;;;;;19.75;3.40;;;1.70;99.90;;;;;;4766646;30;20079;-86
2023/03/28 02:18:22;;;;;;;12.27;1.40;;;1.70;99.90;;;;;;4757569;30;20494;-85
2023/03/28 02:20:55;;;;;;;15.30;1.85;;;1.70;99.90;;;;;;4751290;30;20094;-86
2023/03/28 02:23:33;;;;;;;16.70;1.92;;;1.70;99.90;;;;;;4752612;30;20036;-85
2023/03/28 02:25:59;;;;;;;14.65;2.25;;;1.70;99.90;;;;;;4751864;30;20050;-85
2023/03/28 02:28:25;;;;;;;11.05;1.95;;;1.70;99.90;;;;;;4748700;30;20051;-85
2023/03/28 02:30:52;;;;;;;14.95;1.80;;;1.80;99.90;;;;;;4751742;30;20101;-85
2023/03/28 02:33:32;;;;;;;15.27;2.20;;;1.70;99.90;;;;;;4736825;30;20487;-85
2023/03/28 02:36:07;;;;;;;9.70;1.60;;;1.70;99.90;;;;;;4749112;30;20092;-84
2023/03/28 02:38:53;;;;;;;18.47;2.67;;;1.70;99.90;;;;;;4751544;30;20074;-86
2023/03/28 02:41:33;;;;;;;11.50;1.33;;;1.60;99.90;;;;;;4753494;30;20496;-85
2023/03/28 02:44:17;;;;;;;6.03;1.10;;;1.60;99.90;;;;;;4749341;30;20051;-86
2023/03/28 02:47:01;;;;;;;11.07;1.75;;;1.60;99.90;;;;;;4750568;30;20049;-86
2023/03/28 02:50:10;;;;;;;13.50;1.80;;;1.50;99.90;;;;;;4769213;30;20035;-85
2023/03/28 02:52:50;;;;;;;12.15;2.10;;;1.50;99.90;;;;;;4754590;30;20404;-85
2023/03/28 02:55:37;;;;;;;14.15;1.67;;;1.60;99.90;;;;;;4755536;30;20495;-85
2023/03/28 02:58:33;;;;;;;21.10;1.77;;;1.50;99.90;;;;;;4767804;30;20267;-85
2023/03/28 03:01:01;;;;;;;16.73;1.90;;;1.50;99.90;;;;;;4754627;30;20574;-85
2023/03/28 03:03:26;;;;;;;13.65;2.33;;;1.50;99.90;;;;;;4754962;30;20050;-85
2023/03/28 03:05:52;;;;;;;12.25;1.83;;;1.50;99.90;;;;;;4766463;30;20478;-85
2023/03/28 03:08:17;;;;;;;14.52;3.50;;;1.50;99.90;;;;;;4753037;30;20035;-85
2023/03/28 03:10:43;;;;;;;15.18;1.85;;;1.40;99.90;;;;;;4753926;30;20070;-85
2023/03/28 03:13:09;;;;;;;11.68;1.83;;;1.40;99.90;;;;;;4744078;30;20443;-85
2023/03/28 03:15:34;;;;;;;13.88;1.60;;;1.40;99.90;;;;;;4756378;30;20039;-85
2023/03/28 03:18:00;;;;;;;11.52;1.67;;;1.40;99.90;;;;;;4757184;30;20052;-85
2023/03/28 03:20:32;;;;;;;15.50;2.33;;;1.40;99.90;;;;;;4769192;30;20507;-85
2023/03/28 03:22:58;;;;;;;13.10;1.88;;;1.40;99.90;;;;;;4743986;30;20048;-85
2023/03/28 03:25:23;;;;;;;9.98;1.67;;;1.40;99.90;;;;;;4768275;30;20048;-85
2023/03/28 03:27:49;;;;;;;11.27;2.38;;;1.30;99.90;;;;;;4768740;30;20051;-85
2023/03/28 03:30:14;;;;;;;14.75;1.70;;;1.30;99.90;;;;;;4754198;30;20044;-85
2023/03/28 03:32:42;;;;;;;11.88;2.00;;;1.20;99.90;;;;;;4744062;30;20063;-85
2023/03/28 03:35:08;;;;;;;14.68;1.88;;;1.20;99.90;;;;;;4768962;30;20122;-85
2023/03/28 03:37:34;;;;;;;8.63;2.03;;;1.20;99.90;;;;;;4757081;30;20131;-85
2023/03/28 03:39:59;;;;;;;16.98;2.25;;;1.20;99.90;;;;;;4755519;30;20048;-85
2023/03/28 03:42:25;;;;;;;11.77;2.03;;;1.20;99.90;;;;;;4768698;30;20067;-85
2023/03/28 03:44:53;;;;;;;18.27;2.63;;;1.20;99.90;;;;;;4753832;30;20048;-85
2023/03/28 03:47:18;;;;;;;15.05;2.33;;;1.10;99.90;;;;;;4753254;30;20225;-85
2023/03/28 03:49:44;;;;;;;13.20;1.75;;;1.10;99.90;;;;;;4769458;30;20127;-85
2023/03/28 03:52:10;;;;;;;16.25;1.83;;;1.10;99.90;;;;;;4768520;30;20135;-85
2023/03/28 03:54:36;;;;;;;9.10;1.80;;;1.10;99.90;;;;;;4757097;30;20043;-85
2023/03/28 03:57:01;;;;;;;10.80;2.05;;;1.10;99.90;;;;;;4768091;30;20070;-85
2023/03/28 03:59:27;;;;;;;12.32;1.88;;;1.10;99.90;;;;;;4753717;30;20071;-85
2023/03/28 04:01:54;;;;;;;11.73;1.75;;;1.00;99.90;;;;;;4754085;30;20138;-85
2023/03/28 04:04:20;;;;;;;11.65;1.38;;;1.00;99.90;;;;;;4768074;30;20040;-85
2023/03/28 04:06:46;;;;;;;15.13;2.58;;;1.00;99.90;;;;;;4753840;30;20048;-85
2023/03/28 04:09:12;;;;;;;17.73;2.35;;;1.00;99.90;;;;;;4753231;30;20121;-85
2023/03/28 04:11:37;;;;;;;14.82;2.03;;;1.00;99.90;;;;;;4764928;30;20047;-85
2023/03/28 04:14:03;;;;;;;14.68;1.52;;;1.00;99.90;;;;;;4753456;30;20093;-85
2023/03/28 04:16:29;;;;;;;13.70;1.80;;;1.00;99.90;;;;;;4754211;30;20055;-85
2023/03/28 04:18:55;;;;;;;17.02;2.25;;;1.00;99.90;;;;;;4757247;30;20043;-85
2023/03/28 04:21:27;;;;;;;10.35;2.30;;;1.00;99.90;;;;;;4756562;30;20104;-86
2023/03/28 04:23:53;;;;;;;16.52;2.38;;;1.00;99.90;;;;;;4770702;30;20053;-84
2023/03/28 04:26:36;;;;;;;14.70;1.90;;;1.10;99.90;;;;;;4755986;30;20055;-85
2023/03/28 04:29:04;;;;;;;16.83;1.92;;;1.00;99.90;;;;;;4754774;30;20115;-84
2023/03/28 04:31:34;;;;;;;16.85;2.28;;;1.10;99.90;;;;;;4758214;30;20119;-84
2023/03/28 04:34:02;;;;;;;16.02;2.33;;;1.10;99.90;;;;;;4771084;30;20072;-84
2023/03/28 04:36:28;;;;;;;16.77;2.25;;;1.10;99.90;;;;;;4756116;30;20055;-84
2023/03/28 04:38:57;;;;;;;7.82;1.70;;;1.10;99.90;;;;;;4762130;30;20075;-83
2023/03/28 04:41:24;;;;;;;12.98;1.42;;;1.50;99.90;;;;;;4755219;30;20062;-85
2023/03/28 04:43:50;;;;;;;17.65;3.08;;;1.30;99.90;;;;;;4755926;30;20075;-85
2023/03/28 04:46:16;;;;;;;13.85;2.83;;;1.20;99.90;;;;;;4752558;30;20051;-84
2023/03/28 04:48:41;;;;;;;9.40;1.33;;;1.30;99.90;;;;;;4770727;30;20048;-84
2023/03/28 04:51:07;;;;;;;16.70;1.95;;;1.30;99.90;;;;;;4754461;30;20122;-81
2023/03/28 04:53:32;;;;;;;13.52;2.25;;;1.30;99.90;;;;;;4751766;30;20056;-81
2023/03/28 04:55:58;;;;;;;10.25;1.85;;;1.40;99.90;;;;;;4750817;30;20063;-82
2023/03/28 04:58:24;;;;;;;15.15;2.53;;;1.40;99.90;;;;;;4748898;30;20055;-82
2023/03/28 05:00:50;;;;;;;12.25;1.30;;;1.40;99.90;;;;;;4767617;30;20062;-82
2023/03/28 05:03:19;;;;;;;14.18;1.20;;;1.40;99.90;;;;;;4752009;30;20039;-81
2023/03/28 05:05:47;;;;;;;13.55;1.75;;;1.40;99.90;;;;;;4757991;30;20048;-83
2023/03/28 05:08:14;;;;;;;12.30;1.80;;;1.40;99.90;;;;;;4767072;30;20043;-81
2023/03/28 05:10:40;;;;;;;14.43;2.55;;;1.40;99.90;;;;;;4753169;30;20056;-80
2023/03/28 05:13:06;;;;;;;11.40;1.48;;;1.40;99.90;;;;;;4754648;30;20533;-80
2023/03/28 05:15:32;;;;;;;13.60;2.60;;;1.40;99.90;;;;;;4753996;30;20067;-81
2023/03/28 05:17:58;;;;;;;10.52;2.15;;;1.40;99.90;;;;;;4748775;30;20048;-81
2023/03/28 05:20:33;;;;;;;13.38;1.65;;;1.40;99.90;;;;;;4763319;30;20066;-81
2023/03/28 05:22:58;;;;;;;13.90;2.55;;;1.40;99.90;;;;;;4763200;30;20058;-82
2023/03/28 05:25:25;;;;;;;9.10;1.48;;;1.30;99.90;;;;;;4749361;30;20047;-81
2023/03/28 05:27:51;;;;;;;10.43;1.42;;;1.40;99.90;;;;;;4737177;30;20083;-82
2023/03/28 05:30:16;;;;;;;12.27;1.55;;;1.40;99.90;;;;;;4762274;30;20082;-82
2023/03/28 05:32:42;;;;;;;9.70;1.55;;;1.50;99.90;;;;;;4769036;30;20032;-82
2023/03/28 05:35:10;;;;;;;13.40;1.55;;;1.50;99.90;;;;;;4749531;30;20079;-82
2023/03/28 05:37:36;;;;;;;16.30;1.55;;;1.70;99.90;;;;;;4750479;30;20048;-81
2023/03/28 05:40:06;;;;;;;7.68;1.30;;;1.80;99.90;;;;;;4750028;30;20079;-80
2023/03/28 05:42:33;;;;;;;12.90;1.75;;;1.90;99.90;;;;;;4750285;30;20044;-80
2023/03/28 05:44:58;;;;;;;15.68;1.80;;;2.00;99.90;;;;;;4749884;30;20052;-81
2023/03/28 05:47:24;;;;;;;16.67;1.75;;;2.00;99.90;;;;;;4764945;30;20047;-81
2023/03/28 05:49:49;;;;;;;9.40;2.08;;;2.20;99.90;;;;;;4749799;30;20074;-80
2023/03/28 05:52:15;;;;;;;10.13;1.55;;;2.20;99.90;;;;;;4765653;30;20058;-81
2023/03/28 05:54:41;;;;;;;10.13;1.30;;;2.40;99.90;;;;;;4765591;30;20082;-83
2023/03/28 05:57:09;;;;;;;13.90;2.05;;;2.60;99.90;;;;;;4750969;30;20115;-83
2023/03/28 05:59:39;;;;;;;9.10;1.42;;;3.90;99.90;;;;;;4740717;30;20039;-82
2023/03/28 06:02:09;;;;;;;8.88;1.50;;;4.20;99.90;;;;;;4752350;30;20469;-83
2023/03/28 06:04:41;;;;;;;11.07;1.40;;;5.10;99.90;;;;;;4764388;30;20051;-84
2023/03/28 06:07:07;;;;;;;8.68;1.83;;;6.00;99.90;;;;;;4750359;30;20092;-84
2023/03/28 06:09:34;;;;;;;10.38;1.20;;;6.90;99.90;;;;;;4767643;30;20055;-82
2023/03/28 06:12:01;;;;;;;9.88;1.70;;;7.90;99.90;;;;;;4767837;30;20131;-82
2023/03/28 06:14:27;;;;;;;9.90;2.53;;;8.60;99.90;;;;;;4748602;30;20078;-83
2023/03/28 06:16:53;;;;;;;8.18;1.92;;;9.50;99.90;;;;;;4765753;30;20058;-82
2023/03/28 06:19:18;;;;;;;11.93;1.63;;;10.30;99.90;;;;;;4751128;30;20672;-82
2023/03/28 06:21:44;;;;;;;6.70;1.45;;;11.10;99.90;;;;;;4767275;30;20035;-82
2023/03/28 06:24:10;;;;;;;7.13;1.52;;;11.80;99.90;;;;;;4766311;30;20149;-82
2023/03/28 06:26:35;;;;;;;6.22;1.60;;;12.50;99.90;;;;;;4766556;30;20163;-82
2023/03/28 06:29:02;;;;;;;9.45;2.20;;;13.00;99.90;;;;;;4769884;30;20058;-83
2023/03/28 06:31:28;;;;;;;6.78;1.35;;;13.60;99.90;;;;;;4752182;30;20044;-83
2023/03/28 06:33:54;;;;;;;12.35;1.80;;;14.00;99.90;;;;;;4751108;30;20044;-83
2023/03/28 06:36:19;;;;;;;6.32;1.70;;;14.40;99.90;;;;;;4743607;30;20059;-83
2023/03/28 06:38:46;;;;;;;8.52;1.38;;;14.90;99.90;;;;;;4762583;30;20063;-83
2023/03/28 06:41:12;;;;;;;7.50;1.63;;;15.40;99.90;;;;;;4748578;30;20050;-84
2023/03/28 06:43:37;;;;;;;9.48;1.25;;;15.40;99.90;;;;;;4765518;30;20044;-84
2023/03/28 06:46:03;;;;;;;6.75;1.60;;;15.80;99.90;;;;;;4748012;30;20422;-84
2023/03/28 06:48:30;;;;;;;9.27;1.98;;;15.70;99.90;;;;;;4762167;30;20055;-84
2023/03/28 06:50:59;;;;;;;6.90;1.40;;;15.50;99.90;;;;;;4761367;30;20051;-84
2023/03/28 06:53:26;;;;;;;12.93;2.28;;;14.20;99.90;;;;;;4761727;30;20487;-83
2023/03/28 06:55:52;;;;;;;6.75;1.27;;;13.70;99.90;;;;;;4763341;30;20058;-83
2023/03/28 06:58:19;;;;;;;6.32;1.17;;;12.90;99.90;;;;;;4748499;30;20078;-83
2023/03/28 07:00:45;;;;;;;7.47;1.15;;;12.10;99.90;;;;;;4731528;30;20054;-84
2023/03/28 07:03:10;;;;;;;5.40;0.93;;;12.70;99.90;;;;;;4742825;30;21402;-83
2023/03/28 07:05:41;;;;;;;5.57;1.10;;;12.60;99.90;;;;;;4761875;30;20107;-84
2023/03/28 07:08:08;;;;;;;10.10;1.58;;;12.20;99.90;;;;;;4762776;30;20048;-84
2023/03/28 07:10:35;;;;;;;7.95;1.35;;;12.30;99.90;;;;;;4761336;30;20051;-83
2023/03/28 07:13:00;;;;;;;6.63;1.25;;;12.20;99.90;;;;;;4763150;30;20044;-84
2023/03/28 07:15:26;;;;;;;10.55;1.90;;;12.10;99.90;;;;;;4757068;30;20664;-83
2023/03/28 07:17:52;;;;;;;7.07;1.38;;;12.00;99.90;;;;;;4748277;30;20114;-83
2023/03/28 07:20:19;;;;;;;6.68;1.52;;;12.10;99.90;;;;;;4762349;30;20054;-84
2023/03/28 07:22:44;;;;;;;6.85;1.75;;;12.90;99.90;;;;;;4748637;30;20051;-84
2023/03/28 07:25:11;;;;;;;7.30;1.20;;;12.80;99.90;;;;;;4763188;30;20400;-84
2023/03/28 07:27:37;;;;;;;5.90;1.70;;;12.90;99.90;;;;;;4751051;30;20760;-84
2023/03/28 07:30:04;;;;;;;9.75;2.15;;;11.30;99.90;;;;;;4761873;30;20050;-84
2023/03/28 07:32:30;;;;;;;5.85;1.65;;;10.70;99.90;;;;;;4763969;30;20060;-84
2023/03/28 07:34:55;;;;;;;8.43;1.30;;;10.50;99.90;;;;;;4747785;30;20074;-85
2023/03/28 07:37:21;;;;;;;8.93;1.35;;;10.10;99.90;;;;;;4768152;30;20055;-84
2023/03/28 07:39:47;;;;;;;9.00;1.85;;;9.80;99.90;;;;;;4746006;30;20064;-84
2023/03/28 07:42:14;;;;;;;9.27;1.45;;;9.50;99.90;;;;;;4764473;30;20483;-84
2023/03/28 07:44:40;;;;;;;11.18;1.63;;;9.30;99.90;;;;;;4765767;30;20048;-85
2023/03/28 07:47:06;;;;;;;9.82;1.88;;;8.90;99.90;;;;;;4765324;30;20048;-84
2023/03/28 07:49:32;;;;;;;6.47;1.83;;;8.60;99.90;;;;;;4751821;30;20050;-84
2023/03/28 07:51:58;;;;;;;10.77;2.50;;;8.40;99.90;;;;;;4766575;30;20043;-83
2023/03/28 07:54:26;;;;;;;8.02;1.98;;;8.20;99.90;;;;;;4766658;30;20114;-84
2023/03/28 07:56:51;;;;;;;8.15;2.10;;;8.20;99.90;;;;;;4765321;30;20051;-85
2023/03/28 07:59:17;;;;;;;11.55;3.15;;;8.60;99.90;;;;;;4765652;30;20086;-82
2023/03/28 08:01:44;;;;;;;13.20;3.00;;;7.70;99.90;;;;;;4764973;30;20047;-84
2023/03/28 08:04:12;;;;;;;9.05;2.92;;;8.00;99.90;;;;;;4750055;30;20116;-85
2023/03/28 08:06:38;;;;;;;10.07;3.25;;;7.40;99.90;;;;;;4765646;30;20126;-85
2023/03/28 08:09:06;;;;;;;13.63;3.92;;;7.50;99.90;;;;;;4766548;30;20039;-84
2023/03/28 08:11:33;;;;;;;14.57;3.75;;;7.70;99.90;;;;;;4765469;30;20075;-85
2023/03/28 08:14:00;;;;;;;18.48;3.05;;;7.90;99.90;;;;;;4766541;30;20047;-85
2023/03/28 08:16:26;;;;;;;10.23;2.85;;;8.10;99.90;;;;;;4764312;30;20130;-83
2023/03/28 08:18:52;;;;;;;9.23;2.53;;;8.20;99.90;;;;;;4737996;30;20052;-85
2023/03/28 08:21:17;;;;;;;8.63;2.47;;;8.10;99.90;;;;;;4765174;30;20044;-86
2023/03/28 08:23:43;;;;;;;10.25;2.35;;;8.10;99.90;;;;;;4765943;30;20043;-85
2023/03/28 08:26:09;;;;;;;9.20;2.38;;;8.10;99.90;;;;;;4765563;30;20047;-84
2023/03/28 08:28:37;;;;;;;9.32;1.88;;;9.20;99.90;;;;;;4750109;30;20044;-85
2023/03/28 08:31:14;;;;;;;6.55;1.67;;;8.00;99.90;;;;;;4768090;30;20143;-84
2023/03/28 08:33:41;;;;;;;9.38;2.20;;;8.20;99.90;;;;;;4766168;30;20048;-85
2023/03/28 08:36:08;;;;;;;8.13;1.90;;;8.80;99.90;;;;;;4735841;30;20065;-85
2023/03/28 08:38:34;;;;;;;3.40;1.00;;;8.30;99.90;;;;;;4748496;30;20055;-86
2023/03/28 08:41:24;;;;;;;5.13;0.82;;;9.70;99.90;;;;;;4763756;30;20064;-84
2023/03/28 08:44:16;;;;;;;7.88;1.65;;;8.70;99.90;;;;;;4764245;30;20043;-85
2023/03/28 08:46:44;;;;;;;7.50;1.48;;;8.80;99.90;;;;;;4765209;30;21647;-84
2023/03/28 08:49:18;;;;;;;4.85;0.68;;;9.20;99.90;;;;;;4767308;30;20500;-85
2023/03/28 08:51:47;;;;;;;7.22;1.30;;;9.00;99.90;;;;;;4746917;30;20040;-85
2023/03/28 08:54:30;;;;;;;6.45;1.02;;;8.80;99.90;;;;;;4755442;30;20185;-85
2023/03/28 08:56:57;;;;;;;12.27;1.33;;;9.00;99.90;;;;;;4755458;30;20095;-85
2023/03/28 08:59:42;;;;;;;5.63;1.00;;;9.00;99.90;;;;;;4768158;30;20403;-86
2023/03/28 09:02:19;;;;;;;8.77;1.15;;;9.30;99.90;;;;;;4765781;30;20043;-85
2023/03/28 09:04:46;;;;;;;8.25;1.30;;;9.90;99.90;;;;;;4747155;30;20148;-85
2023/03/28 09:07:33;;;;;;;11.70;2.65;;;10.20;99.90;;;;;;4765457;30;20082;-86
2023/03/28 09:10:17;;;;;;;6.40;1.00;;;9.90;99.90;;;;;;4750218;30;20093;-85
2023/03/28 09:13:06;;;;;;;5.00;1.35;;;10.20;99.90;;;;;;4739087;30;20043;-85
2023/03/28 09:15:53;;;;;;;5.78;0.90;;;10.50;99.90;;;;;;4748386;30;20174;-86
2023/03/28 09:18:36;;;;;;;3.83;0.93;;;11.40;99.90;;;;;;4755828;30;20047;-86
2023/03/28 09:21:22;;;;;;;6.70;0.95;;;10.30;99.90;;;;;;4766057;30;20136;-86
2023/03/28 09:24:00;;;;;;;;;;;10.40;99.90;;;;;;4756517;30;20453;-85
2023/03/28 09:26:35;;;;;;;7.93;1.20;;;10.70;99.90;;;;;;4753493;30;19925;-85
2023/03/28 09:29:15;;;;;;;6.25;1.67;;;10.70;99.90;;;;;;4750836;30;20128;-86
2023/03/28 09:31:46;;;;;;;4.57;1.60;;;10.30;99.90;;;;;;4761045;30;20047;-86
2023/03/28 09:34:22;;;;;;;5.70;1.00;;;10.50;99.90;;;;;;4767279;30;20040;-86
2023/03/28 09:36:52;;;;;;;7.28;2.13;;;10.50;99.90;;;;;;4751450;30;20047;-86
2023/03/28 09:39:35;;;;;;;7.20;1.95;;;10.60;99.90;;;;;;4750220;30;20047;-85
2023/03/28 09:42:28;;;;;;;7.25;2.42;;;10.60;99.90;;;;;;4747567;30;20130;-86
2023/03/28 09:45:07;;;;;;;25.08;2.38;;;11.80;99.90;;;;;;4750056;30;20066;-87
2023/03/28 09:47:33;;;;;;;4.60;1.45;;;10.40;99.90;;;;;;4764032;30;20466;-86
2023/03/28 09:49:59;;;;;;;9.70;0.82;;;10.30;99.90;;;;;;4750358;30;20070;-86
2023/03/28 09:52:24;;;;;;;9.90;0.90;;;10.10;99.90;;;;;;4747933;30;20511;-87
2023/03/28 09:54:50;;;;;;;3.92;0.80;;;9.80;99.90;;;;;;4765858;30;20052;-85
2023/03/28 09:57:16;;;;;;;2.80;0.85;;;9.90;99.90;;;;;;4750817;30;20036;-86
2023/03/28 09:59:42;;;;;;;5.50;0.75;;;9.80;99.90;;;;;;4768709;30;20092;-86
2023/03/28 10:02:28;;;;;;;8.02;1.08;;;9.70;99.90;;;;;;4752245;30;20051;-86
2023/03/28 10:04:54;;;;;;;3.33;0.70;;;8.70;99.90;;;;;;4737396;30;20052;-86
2023/03/28 10:07:30;;;;;;;5.45;0.98;;;9.60;99.90;;;;;;4749763;30;20085;-86
2023/03/28 10:09:57;;;;;;;4.75;0.50;;;9.90;99.90;;;;;;4767937;30;20051;-86
2023/03/28 10:12:36;;;;;;;3.85;0.70;;;9.70;99.90;;;;;;4766888;30;20044;-86
2023/03/28 10:15:03;;;;;;;4.65;0.70;;;9.90;99.90;;;;;;4738108;30;20523;-86
2023/03/28 10:17:31;;;;;;;5.22;0.65;;;10.10;99.90;;;;;;4751608;30;20032;-87
2023/03/28 10:20:21;;;;;;;4.10;0.70;;;9.90;99.90;;;;;;4766098;30;20082;-86
2023/03/28 10:22:50;;;;;;;8.73;0.70;;;10.20;99.90;;;;;;4737299;30;20045;-85
2023/03/28 10:25:36;;;;;;;7.93;0.93;;;10.20;99.90;;;;;;4749261;30;20044;-86
2023/03/28 10:28:04;;;;;;;4.60;0.80;;;10.20;99.90;;;;;;4751192;30;20094;-86
2023/03/28 10:30:33;;;;;;;5.78;0.75;;;10.90;99.90;;;;;;4748749;30;20399;-86
2023/03/28 10:33:19;;;;;;;3.03;0.80;;;10.40;99.90;;;;;;4753246;30;20044;-85
2023/03/28 10:35:54;;;;;;;6.88;1.17;;;10.30;99.90;;;;;;4761403;30;20542;-86
2023/03/28 10:38:21;;;;;;;5.05;0.82;;;10.30;99.90;;;;;;4765676;30;20043;-86
2023/03/28 10:40:58;;;;;;;6.05;1.15;;;10.20;99.90;;;;;;4753519;30;20043;-86
2023/03/28 10:43:31;;;;;;;6.28;0.80;;;10.10;99.90;;;;;;4754326;30;20052;-86
2023/03/28 10:46:00;;;;;;;3.90;0.82;;;10.10;99.90;;;;;;4748782;30;20139;-86
2023/03/28 10:48:32;;;;;;;3.63;1.00;;;10.60;99.90;;;;;;4753613;30;20135;-86
2023/03/28 10:51:02;;;;;;;10.25;1.05;;;10.10;99.90;;;;;;4766226;30;20048;-86
2023/03/28 10:53:36;;;;;;;4.25;0.90;;;10.00;99.90;;;;;;4748162;30;20403;-85
2023/03/28 10:56:21;;;;;;;5.05;1.02;;;9.80;99.90;;;;;;4749316;30;20043;-87
2023/03/28 10:59:21;;;;;;;3.67;1.15;;;9.60;99.90;;;;;;4749487;30;20640;-86
2023/03/28 11:02:05;;;;;;;5.50;1.30;;;9.50;99.90;;;;;;4736632;30;20043;-86
2023/03/28 11:05:12;;;;;;;4.35;1.08;;;9.40;99.90;;;;;;4764941;30;20111;-86
2023/03/28 11:08:06;;;;;;;5.97;1.10;;;9.60;99.90;;;;;;4764590;30;20431;-85
2023/03/28 11:10:37;;;;;;;3.60;0.73;;;9.80;99.90;;;;;;4755473;30;20128;-85
2023/03/28 11:13:22;;;;;;;5.43;1.52;;;10.00;99.90;;;;;;4755841;30;20087;-84
2023/03/28 11:16:03;;;;;;;5.80;1.30;;;10.20;99.90;;;;;;4755901;30;20048;-85
2023/03/28 11:25:19;;;;;;;3.88;0.93;;;9.90;99.90;;;;;;4766407;30;20077;-88
2023/03/28 11:47:33;;;;;;;4.07;0.80;;;9.90;99.90;;;;;;4749114;30;20131;-87
2023/03/28 12:01:42;;;;;;;3.80;1.10;;;9.50;99.90;;;;;;4717334;30;20143;-86
2023/03/28 12:04:24;;;;;;;6.65;1.45;;;10.50;99.90;;;;;;4724759;30;20109;-86
2023/03/28 12:10:38;;;;;;;6.15;1.73;;;9.10;99.90;;;;;;4746550;30;20447;-87
2023/03/28 12:13:50;;;;;;;8.18;1.33;;;10.30;99.90;;;;;;4732272;30;20043;-87
2023/03/28 12:33:15;;;;;;;3.20;1.30;;;10.50;99.90;;;;;;4952399;24;20071;-86
2023/03/28 12:36:16;;;;;;;;;;;;;;;;;;;;;
2023/03/28 12:39:16;;;;;;;10.25;1.35;;;10.40;99.40;;;;;;4705756;30;20476;-83
2023/03/28 12:41:44;;;;;;;4.97;1.92;;;10.40;99.40;;;;;;4743375;30;20043;-84
2023/03/28 12:44:26;;;;;;;4.05;1.20;;;10.70;99.10;;;;;;4761675;30;20044;-83
2023/03/28 12:46:57;;;;;;;5.10;0.98;;;10.50;99.90;;;;;;4760097;30;20077;-84
2023/03/28 12:50:04;;;;;;;5.10;1.45;;;10.30;99.40;;;;;;4748360;30;20082;-84
2023/03/28 12:52:35;;;;;;;6.35;1.63;;;10.30;99.20;;;;;;4766639;30;20242;-85
2023/03/28 12:55:07;;;;;;;8.15;1.38;;;10.50;99.60;;;;;;4747883;30;20423;-84
2023/03/28 12:57:42;;;;;;;4.43;1.20;;;10.00;99.20;;;;;;4759691;30;20158;-84
2023/03/28 13:00:26;;;;;;;8.35;2.13;;;9.90;99.30;;;;;;4747420;30;20359;-85
2023/03/28 13:03:04;;;;;;;4.47;1.30;;;9.80;99.80;;;;;;4749753;30;20150;-83
2023/03/28 13:12:00;;;;;;;6.20;1.48;;;9.90;99.90;;;;;;5516128;24;20411;-85
2023/03/28 13:14:39;;;;;;;4.68;1.75;;;9.90;99.90;;;;;;4738971;30;20048;-84
2023/03/28 13:17:22;;;;;;;4.20;1.20;;;10.80;99.90;;;;;;4748721;30;20394;-85
2023/03/28 13:19:54;;;;;;;6.60;1.17;;;10.00;99.90;;;;;;4748300;30;20108;-85
2023/03/28 13:22:29;;;;;;;5.15;1.70;;;10.00;99.90;;;;;;4748199;30;20044;-85
2023/03/28 13:25:32;;;;;;;5.75;2.28;;;9.90;99.90;;;;;;4733362;30;20047;-82
2023/03/28 13:28:27;;;;;;;7.65;1.77;;;9.70;99.90;;;;;;4751130;30;20043;-82
2023/03/28 13:31:04;;;;;;;3.08;0.88;;;9.60;99.90;;;;;;4747926;30;20047;-83
2023/03/28 13:33:37;;;;;;;4.53;1.20;;;9.60;99.90;;;;;;4746963;30;20053;-85
2023/03/28 13:36:02;;;;;;;3.95;1.00;;;9.70;99.90;;;;;;4765460;30;20056;-82
2023/03/28 13:38:28;;;;;;;4.43;1.38;;;10.10;99.90;;;;;;4766021;30;20051;-82
2023/03/28 13:40:58;;;;;;;6.53;1.80;;;9.60;99.90;;;;;;4754470;30;20055;-83
2023/03/28 13:43:35;;;;;;;5.32;1.35;;;9.60;99.90;;;;;;4757360;30;20107;-83
2023/03/28 13:46:12;;;;;;;3.75;0.98;;;9.70;99.50;;;;;;4761443;30;20139;-84
2023/03/28 13:48:57;;;;;;;8.45;1.38;;;9.70;99.90;;;;;;4749840;30;20585;-85
2023/03/28 13:51:27;;;;;;;3.38;1.15;;;10.10;99.90;;;;;;4749260;30;20047;-84
2023/03/28 13:53:53;;;;;;;4.00;1.08;;;10.10;99.90;;;;;;4765111;30;20084;-87
2023/03/28 13:56:27;;;;;;;5.97;1.38;;;9.70;99.60;;;;;;4775249;30;20044;-84
2023/03/28 13:58:55;;;;;;;5.63;1.33;;;9.80;99.90;;;;;;4751056;30;20052;-83
2023/03/28 14:01:24;;;;;;;4.63;0.90;;;9.70;99.00;;;;;;4746895;30;20040;-86
2023/03/28 14:04:37;;;;;;;7.30;1.42;;;9.90;99.50;;;;;;4749332;30;20078;-86
2023/03/28 14:07:25;;;;;;;4.80;1.48;;;9.30;99.90;;;;;;4749253;30;20054;-85
2023/03/28 14:09:52;;;;;;;5.30;1.55;;;9.10;99.90;;;;;;4737287;30;20043;-83
2023/03/28 14:12:30;;;;;;;8.40;1.50;;;9.90;99.90;;;;;;4759610;30;20746;-84
2023/03/28 14:14:59;;;;;;;6.72;1.40;;;9.50;99.90;;;;;;4746394;30;20043;-82
2023/03/28 14:18:07;;;;;;;4.28;1.58;;;9.50;99.90;;;;;;4746669;30;20039;-82
2023/03/28 14:20:37;;;;;;;6.20;1.20;;;9.40;99.90;;;;;;4728775;30;20142;-86
2023/03/28 14:23:05;;;;;;;8.63;2.47;;;9.50;99.80;;;;;;4766988;30;20043;-84